createdAt,value
2023-02-09T00:04:35.039Z,5.82
2023-02-09T00:09:37.141Z,5.03
2023-02-09T00:14:38.955Z,4.15
2023-02-09T00:19:40.897Z,4.32
2023-02-09T00:24:42.747Z,4.10
2023-02-09T00:29:44.665Z,4.50
2023-02-09T00:34:46.440Z,3.97
2023-02-09T00:39:48.257Z,4.03
2023-02-09T00:44:50.176Z,4.10
2023-02-09T00:49:52.034Z,4.68
2023-02-09T00:54:53.816Z,5.20
2023-02-09T00:59:55.826Z,4.80
2023-02-09T01:04:57.673Z,4.65
2023-02-09T01:10:00.148Z,4.40
2023-02-09T01:15:02.457Z,4.57
2023-02-09T01:20:05.950Z,4.50
2023-02-09T01:25:09.229Z,4.60
2023-02-09T01:30:11.647Z,4.47
2023-02-09T01:35:13.664Z,4.60
2023-02-09T01:40:15.686Z,3.75
2023-02-09T01:45:23.611Z,4.45
2023-02-09T01:50:27.248Z,5.20
2023-02-09T01:55:31.980Z,4.60
2023-02-09T02:00:33.951Z,4.55
2023-02-09T02:05:39.484Z,4.20
2023-02-09T02:10:41.608Z,4.90
2023-02-09T02:16:08.584Z,4.03
2023-02-09T02:21:47.719Z,5.20
2023-02-09T02:26:58.197Z,4.22
2023-02-09T02:37:11.577Z,4.28
2023-02-09T02:42:40.774Z,4.47
2023-02-09T02:47:49.556Z,5.20
2023-02-09T02:52:56.661Z,5.03
2023-02-09T02:58:09.222Z,5.18
2023-02-09T03:03:21.838Z,4.90
2023-02-09T03:08:23.602Z,5.50
2023-02-09T03:13:40.526Z,5.22
2023-02-09T03:19:06.455Z,4.85
2023-02-09T03:24:14.370Z,4.80
2023-02-09T03:29:18.577Z,5.35
2023-02-09T03:34:20.557Z,5.68
2023-02-09T03:39:22.492Z,5.10
2023-02-09T03:44:27.155Z,5.22
2023-02-09T03:49:34.790Z,5.80
2023-02-09T03:54:37.189Z,5.63
2023-02-09T03:59:39.821Z,5.45
2023-02-09T04:04:41.609Z,5.95
2023-02-09T04:09:43.557Z,4.93
2023-02-09T04:14:45.311Z,5.32
2023-02-09T04:19:47.127Z,6.50
2023-02-09T04:24:48.877Z,5.93
2023-02-09T04:29:51.783Z,5.90
2023-02-09T04:34:53.614Z,6.25
2023-02-09T04:39:55.414Z,5.68
2023-02-09T04:44:57.166Z,6.28
2023-02-09T04:49:58.952Z,6.63
2023-02-09T04:55:00.751Z,6.05
2023-02-09T05:00:02.574Z,6.85
2023-02-09T05:05:04.649Z,6.47
2023-02-09T05:10:06.899Z,6.97
2023-02-09T05:15:09.288Z,7.35
2023-02-09T05:20:11.466Z,6.55
2023-02-09T05:25:16.141Z,6.40
2023-02-09T05:30:18.134Z,6.90
2023-02-09T05:35:20.365Z,7.07
2023-02-09T05:40:22.270Z,7.57
2023-02-09T05:45:24.007Z,6.80
2023-02-09T05:50:25.805Z,7.90
2023-02-09T05:55:27.821Z,6.55
2023-02-09T06:00:29.983Z,7.28
2023-02-09T06:05:31.944Z,7.50
2023-02-09T06:10:33.681Z,7.10
2023-02-09T06:15:35.702Z,7.43
2023-02-09T06:20:37.585Z,7.60
2023-02-09T06:25:40.616Z,8.05
2023-02-09T06:30:42.440Z,7.70
2023-02-09T06:35:44.830Z,8.30
2023-02-09T06:40:47.561Z,8.15
2023-02-09T06:45:49.749Z,7.75
2023-02-09T06:50:51.574Z,8.30
2023-02-09T06:55:58.931Z,7.78
2023-02-09T07:01:04.736Z,7.90
2023-02-09T07:06:12.396Z,7.07
2023-02-09T07:11:18.851Z,8.02
2023-02-09T07:16:20.765Z,7.15
2023-02-09T07:21:22.681Z,7.70
2023-02-09T07:26:24.528Z,7.60
2023-02-09T07:31:27.466Z,8.45
2023-02-09T07:36:29.432Z,7.85
2023-02-09T07:41:31.422Z,9.48
2023-02-09T07:46:33.335Z,9.25
2023-02-09T07:51:35.116Z,9.10
2023-02-09T07:56:36.895Z,9.68
2023-02-09T08:01:38.748Z,8.48
2023-02-09T08:06:45.153Z,7.97
2023-02-09T08:11:53.750Z,7.95
2023-02-09T08:17:18.576Z,9.23
2023-02-09T08:22:22.687Z,9.13
2023-02-09T08:27:24.586Z,9.80
2023-02-09T08:32:26.446Z,7.63
2023-02-09T08:37:28.263Z,9.02
2023-02-09T08:42:30.080Z,8.98
2023-02-09T08:47:31.855Z,8.90
2023-02-09T08:52:33.681Z,8.68
2023-02-09T08:57:43.859Z,8.63
2023-02-09T09:02:45.959Z,6.75
2023-02-09T09:07:48.330Z,8.13
2023-02-09T09:12:51.323Z,8.20
2023-02-09T09:17:53.132Z,8.23
2023-02-09T09:22:59.378Z,8.88
2023-02-09T09:28:01.703Z,8.63
2023-02-09T09:33:03.828Z,8.60
2023-02-09T09:38:05.715Z,8.68
2023-02-09T09:43:15.005Z,8.82
2023-02-09T09:48:24.051Z,8.63
2023-02-09T09:53:38.751Z,8.65
2023-02-09T09:58:43.454Z,9.25
2023-02-09T10:03:45.375Z,8.95
2023-02-09T10:08:59.878Z,8.45
2023-02-09T10:14:01.648Z,8.70
2023-02-09T10:19:22.882Z,7.68
2023-02-09T10:24:33.353Z,8.35
2023-02-09T10:29:35.933Z,7.03
2023-02-09T10:34:37.646Z,8.15
2023-02-09T10:39:40.021Z,8.02
2023-02-09T10:44:49.400Z,8.27
2023-02-09T10:49:55.068Z,8.50
2023-02-09T10:55:01.449Z,9.10
2023-02-09T11:00:15.278Z,9.75
2023-02-09T11:05:23.264Z,9.18
2023-02-09T11:10:29.038Z,8.95
2023-02-09T11:15:40.377Z,9.43
2023-02-09T11:20:52.712Z,11.18
2023-02-09T11:26:31.075Z,9.35
2023-02-09T11:31:50.027Z,9.30
2023-02-09T11:37:19.424Z,10.05
2023-02-09T11:42:46.866Z,9.88
2023-02-09T11:48:12.335Z,9.00
2023-02-09T11:53:24.858Z,10.45
2023-02-09T11:59:18.844Z,10.63
2023-02-09T12:04:44.001Z,11.38
2023-02-09T12:09:52.029Z,11.07
2023-02-09T12:15:18.694Z,11.52
2023-02-09T12:20:40.698Z,11.88
2023-02-09T12:25:54.778Z,12.15
2023-02-09T12:30:59.330Z,12.82
2023-02-09T12:36:09.921Z,12.70
2023-02-09T12:41:15.263Z,8.95
2023-02-09T12:46:45.141Z,11.23
2023-02-09T12:51:53.271Z,12.97
2023-02-09T12:56:55.485Z,12.45
2023-02-09T13:02:06.534Z,12.18
2023-02-09T13:07:32.215Z,12.90
2023-02-09T13:12:39.153Z,12.57
2023-02-09T13:18:06.970Z,14.00
2023-02-09T13:23:26.455Z,15.25
2023-02-09T13:28:28.495Z,14.07
2023-02-09T13:33:44.163Z,14.23
2023-02-09T13:38:46.306Z,15.45
2023-02-09T13:43:48.497Z,15.30
2023-02-09T13:48:50.274Z,15.70
2023-02-09T13:54:00.348Z,15.48
2023-02-09T13:59:02.349Z,11.07
2023-02-09T14:04:14.669Z,15.35
2023-02-09T14:09:29.786Z,17.30
2023-02-09T14:14:56.131Z,16.75
2023-02-09T14:19:59.664Z,16.63
2023-02-09T14:25:15.050Z,17.48
2023-02-09T14:30:24.381Z,17.40
2023-02-09T14:35:30.471Z,17.45
2023-02-09T14:40:34.689Z,17.90
2023-02-09T14:45:48.519Z,16.67
2023-02-09T14:51:02.402Z,17.42
2023-02-09T14:56:04.426Z,17.17
2023-02-09T15:01:06.262Z,16.30
2023-02-09T15:06:08.224Z,17.70
2023-02-09T15:11:42.247Z,17.90
2023-02-09T15:16:44.308Z,19.02
2023-02-09T15:21:52.680Z,17.75
2023-02-09T15:27:03.936Z,17.75
2023-02-09T15:32:16.668Z,21.33
2023-02-09T15:37:28.466Z,17.10
2023-02-09T15:42:48.895Z,17.55
2023-02-09T15:47:52.815Z,13.02
2023-02-09T15:52:55.547Z,17.30
2023-02-09T15:57:57.946Z,17.10
2023-02-09T16:03:01.591Z,17.60
2023-02-09T16:08:03.580Z,16.27
2023-02-09T16:13:09.803Z,16.58
2023-02-09T16:18:12.125Z,17.92
2023-02-09T16:23:33.137Z,16.92
2023-02-09T16:28:34.931Z,15.77
2023-02-09T16:33:38.774Z,17.67
2023-02-09T16:38:40.577Z,16.60
2023-02-09T16:43:42.456Z,16.83
2023-02-09T16:48:46.489Z,16.88
2023-02-09T16:53:51.706Z,20.02
2023-02-09T16:58:53.536Z,16.92
2023-02-09T17:03:56.535Z,17.48
2023-02-09T17:08:58.790Z,17.27
2023-02-09T17:14:00.553Z,17.10
2023-02-09T17:19:06.262Z,17.88
2023-02-09T17:24:15.793Z,16.63
2023-02-09T17:29:20.183Z,17.77
2023-02-09T17:34:27.146Z,18.00
2023-02-09T17:39:30.777Z,18.00
2023-02-09T17:44:45.442Z,17.90
2023-02-09T17:49:48.182Z,18.63
2023-02-09T17:54:50.930Z,18.15
2023-02-09T17:59:52.792Z,19.92
2023-02-09T18:04:54.588Z,19.63
2023-02-09T18:09:56.658Z,17.85
2023-02-09T18:14:59.282Z,18.55
2023-02-09T18:20:01.200Z,18.15
2023-02-09T18:25:03.144Z,18.42
2023-02-09T18:30:05.452Z,19.25
2023-02-09T18:35:08.052Z,20.35
2023-02-09T18:40:10.301Z,20.23
2023-02-09T18:45:14.112Z,19.00
2023-02-09T18:50:23.386Z,19.60
2023-02-09T18:55:29.327Z,20.85
2023-02-09T19:00:32.211Z,20.35
2023-02-09T19:05:35.705Z,19.88
2023-02-09T19:10:37.896Z,19.98
2023-02-09T19:15:40.390Z,20.20
2023-02-09T19:20:42.267Z,20.08
2023-02-09T19:25:44.679Z,20.30
2023-02-09T19:30:46.764Z,20.85
2023-02-09T19:35:59.759Z,21.40
2023-02-09T19:41:12.289Z,20.75
2023-02-09T19:46:14.292Z,20.42
2023-02-09T19:51:16.161Z,21.75
2023-02-09T19:56:20.790Z,20.40
2023-02-09T20:01:22.956Z,21.98
2023-02-09T20:06:25.332Z,21.67
2023-02-09T20:11:28.018Z,20.27
2023-02-09T20:16:29.860Z,20.85
2023-02-09T20:21:31.680Z,21.40
2023-02-09T20:26:33.576Z,20.63
2023-02-09T20:31:37.800Z,21.00
2023-02-09T20:36:40.851Z,20.80
2023-02-09T20:42:06.175Z,22.65
2023-02-09T20:47:08.220Z,21.75
2023-02-09T20:52:10.094Z,21.92
2023-02-09T20:57:11.885Z,22.30
2023-02-09T21:02:16.058Z,20.70
2023-02-09T21:07:20.177Z,20.95
2023-02-09T21:12:22.146Z,20.23
2023-02-09T21:17:24.137Z,21.02
2023-02-09T21:22:25.927Z,22.17
2023-02-09T21:27:27.684Z,21.30
2023-02-09T21:32:29.474Z,19.95
2023-02-09T21:37:32.217Z,20.95
2023-02-09T21:42:35.583Z,21.83
2023-02-09T21:47:39.382Z,22.67
2023-02-09T21:52:41.317Z,23.20
2023-02-09T21:57:43.342Z,23.27
2023-02-09T22:02:45.675Z,22.55
2023-02-09T22:07:48.435Z,24.00
2023-02-09T22:12:50.322Z,23.05
2023-02-09T22:17:52.100Z,22.23
2023-02-09T22:22:53.836Z,21.77
2023-02-09T22:27:55.645Z,22.15
2023-02-09T22:32:57.664Z,20.45
2023-02-09T22:37:59.482Z,21.05
2023-02-09T22:43:01.242Z,22.48
2023-02-09T22:48:03.079Z,22.38
2023-02-09T22:53:05.155Z,23.30
2023-02-09T22:58:07.113Z,23.08
2023-02-09T23:03:08.927Z,23.75
2023-02-09T23:08:13.844Z,23.33
2023-02-09T23:13:15.609Z,23.75
2023-02-09T23:18:17.411Z,23.05
2023-02-09T23:23:19.187Z,24.83
2023-02-09T23:28:21.081Z,23.13
2023-02-09T23:33:23.255Z,22.40
2023-02-09T23:38:25.043Z,22.08
2023-02-09T23:43:26.873Z,23.02
2023-02-09T23:48:28.927Z,23.73
2023-02-09T23:53:32.187Z,24.70
2023-02-09T23:58:36.349Z,23.63
